sensor_id;sensor_type;location;lat;lon;timestamp;temperature;humidity
7194;DHT22;3638;48.820;9.244;2023-03-03T00:00:05;2.30;99.90
7194;DHT22;3638;48.820;9.244;2023-03-03T00:02:33;2.30;99.90
7194;DHT22;3638;48.820;9.244;2023-03-03T00:05:01;2.10;99.90
7194;DHT22;3638;48.820;9.244;2023-03-03T00:07:28;0.60;99.90
7194;DHT22;3638;48.820;9.244;2023-03-03T00:09:55;2.10;99.90
7194;DHT22;3638;48.820;9.244;2023-03-03T00:12:24;1.90;99.90
7194;DHT22;3638;48.820;9.244;2023-03-03T00:14:52;1.90;99.90
7194;DHT22;3638;48.820;9.244;2023-03-03T00:17:22;2.00;99.90
7194;DHT22;3638;48.820;9.244;2023-03-03T00:19:50;2.40;99.90
7194;DHT22;3638;48.820;9.244;2023-03-03T00:22:27;2.00;99.90
7194;DHT22;3638;48.820;9.244;2023-03-03T00:24:58;2.10;99.90
7194;DHT22;3638;48.820;9.244;2023-03-03T00:27:29;1.90;99.90
7194;DHT22;3638;48.820;9.244;2023-03-03T00:29:58;1.80;99.90
7194;DHT22;3638;48.820;9.244;2023-03-03T00:32:27;1.90;99.90
7194;DHT22;3638;48.820;9.244;2023-03-03T00:35:01;1.90;99.90
7194;DHT22;3638;48.820;9.244;2023-03-03T00:37:46;1.90;99.90
7194;DHT22;3638;48.820;9.244;2023-03-03T00:40:22;1.90;99.90
7194;DHT22;3638;48.820;9.244;2023-03-03T00:42:52;1.70;99.90
7194;DHT22;3638;48.820;9.244;2023-03-03T00:45:28;1.70;99.90
7194;DHT22;3638;48.820;9.244;2023-03-03T00:47:58;1.70;99.90
7194;DHT22;3638;48.820;9.244;2023-03-03T00:50:34;1.50;99.90
7194;DHT22;3638;48.820;9.244;2023-03-03T00:53:09;1.50;99.90
7194;DHT22;3638;48.820;9.244;2023-03-03T00:55:37;1.60;99.90
7194;DHT22;3638;48.820;9.244;2023-03-03T00:58:05;1.50;99.90
7194;DHT22;3638;48.820;9.244;2023-03-03T01:00:32;1.50;99.90
7194;DHT22;3638;48.820;9.244;2023-03-03T01:03:02;1.40;99.90
7194;DHT22;3638;48.820;9.244;2023-03-03T01:05:31;1.30;99.90
7194;DHT22;3638;48.820;9.244;2023-03-03T01:07:58;1.40;99.90
7194;DHT22;3638;48.820;9.244;2023-03-03T01:10:28;1.30;99.90
7194;DHT22;3638;48.820;9.244;2023-03-03T01:12:56;1.40;99.90
7194;DHT22;3638;48.820;9.244;2023-03-03T01:15:23;1.30;99.90
7194;DHT22;3638;48.820;9.244;2023-03-03T01:17:50;1.30;99.90
7194;DHT22;3638;48.820;9.244;2023-03-03T01:20:17;1.10;99.90
7194;DHT22;3638;48.820;9.244;2023-03-03T01:22:44;1.00;99.90
7194;DHT22;3638;48.820;9.244;2023-03-03T01:25:11;1.00;99.90
7194;DHT22;3638;48.820;9.244;2023-03-03T01:27:40;1.10;99.90
7194;DHT22;3638;48.820;9.244;2023-03-03T01:30:08;1.00;99.90
7194;DHT22;3638;48.820;9.244;2023-03-03T01:32:35;1.00;99.90
7194;DHT22;3638;48.820;9.244;2023-03-03T01:35:03;0.90;99.90
7194;DHT22;3638;48.820;9.244;2023-03-03T01:37:30;0.90;99.90
7194;DHT22;3638;48.820;9.244;2023-03-03T01:39:57;0.80;99.90
7194;DHT22;3638;48.820;9.244;2023-03-03T01:42:24;0.80;99.90
7194;DHT22;3638;48.820;9.244;2023-03-03T01:47:59;0.70;99.90
7194;DHT22;3638;48.820;9.244;2023-03-03T01:50:32;0.70;99.90
7194;DHT22;3638;48.820;9.244;2023-03-03T01:53:04;0.70;99.90
7194;DHT22;3638;48.820;9.244;2023-03-03T01:55:34;0.70;99.90
7194;DHT22;3638;48.820;9.244;2023-03-03T01:58:04;0.60;99.90
7194;DHT22;3638;48.820;9.244;2023-03-03T02:00:33;0.60;99.90
7194;DHT22;3638;48.820;9.244;2023-03-03T02:03:03;0.50;99.90
7194;DHT22;3638;48.820;9.244;2023-03-03T02:05:30;0.60;99.90
7194;DHT22;3638;48.820;9.244;2023-03-03T02:07:58;0.60;99.90
7194;DHT22;3638;48.820;9.244;2023-03-03T02:10:26;0.60;99.90
7194;DHT22;3638;48.820;9.244;2023-03-03T02:12:55;0.50;99.90
7194;DHT22;3638;48.820;9.244;2023-03-03T02:15:25;0.50;99.90
7194;DHT22;3638;48.820;9.244;2023-03-03T02:17:55;0.40;99.90
7194;DHT22;3638;48.820;9.244;2023-03-03T02:20:34;0.40;99.90
7194;DHT22;3638;48.820;9.244;2023-03-03T02:23:14;0.50;99.90
7194;DHT22;3638;48.820;9.244;2023-03-03T02:25:48;0.40;99.90
7194;DHT22;3638;48.820;9.244;2023-03-03T02:28:20;0.40;99.90
7194;DHT22;3638;48.820;9.244;2023-03-03T02:30:48;0.30;99.90
7194;DHT22;3638;48.820;9.244;2023-03-03T02:33:15;0.30;99.90
7194;DHT22;3638;48.820;9.244;2023-03-03T02:35:42;0.40;99.90
7194;DHT22;3638;48.820;9.244;2023-03-03T02:38:18;0.40;99.90
7194;DHT22;3638;48.820;9.244;2023-03-03T02:40:54;0.50;99.90
7194;DHT22;3638;48.820;9.244;2023-03-03T02:43:31;0.40;99.90
7194;DHT22;3638;48.820;9.244;2023-03-03T02:46:02;0.40;99.90
7194;DHT22;3638;48.820;9.244;2023-03-03T02:48:29;0.40;99.90
7194;DHT22;3638;48.820;9.244;2023-03-03T02:50:55;0.40;99.90
7194;DHT22;3638;48.820;9.244;2023-03-03T02:53:22;0.50;99.90
7194;DHT22;3638;48.820;9.244;2023-03-03T02:55:49;0.40;99.90
7194;DHT22;3638;48.820;9.244;2023-03-03T02:58:16;0.40;99.90
7194;DHT22;3638;48.820;9.244;2023-03-03T03:00:44;0.40;99.90
7194;DHT22;3638;48.820;9.244;2023-03-03T03:03:12;0.60;99.90
7194;DHT22;3638;48.820;9.244;2023-03-03T03:05:40;0.70;99.90
7194;DHT22;3638;48.820;9.244;2023-03-03T03:08:07;0.90;99.90
7194;DHT22;3638;48.820;9.244;2023-03-03T03:10:35;1.00;99.90
7194;DHT22;3638;48.820;9.244;2023-03-03T03:13:02;1.10;99.90
7194;DHT22;3638;48.820;9.244;2023-03-03T03:15:29;1.10;99.90
7194;DHT22;3638;48.820;9.244;2023-03-03T03:17:57;1.10;99.90
7194;DHT22;3638;48.820;9.244;2023-03-03T03:20:25;1.10;99.90
7194;DHT22;3638;48.820;9.244;2023-03-03T03:22:52;1.20;99.90
7194;DHT22;3638;48.820;9.244;2023-03-03T03:25:19;1.10;99.90
7194;DHT22;3638;48.820;9.244;2023-03-03T03:27:46;1.10;99.90
7194;DHT22;3638;48.820;9.244;2023-03-03T03:30:13;1.00;99.90
7194;DHT22;3638;48.820;9.244;2023-03-03T03:32:40;1.10;99.90
7194;DHT22;3638;48.820;9.244;2023-03-03T03:35:08;1.10;99.90
7194;DHT22;3638;48.820;9.244;2023-03-03T03:37:36;1.10;99.90
7194;DHT22;3638;48.820;9.244;2023-03-03T03:40:04;1.10;99.90
7194;DHT22;3638;48.820;9.244;2023-03-03T03:42:31;1.10;99.90
7194;DHT22;3638;48.820;9.244;2023-03-03T03:44:58;1.20;99.90
7194;DHT22;3638;48.820;9.244;2023-03-03T03:47:25;1.30;99.90
7194;DHT22;3638;48.820;9.244;2023-03-03T03:49:52;1.30;99.90
7194;DHT22;3638;48.820;9.244;2023-03-03T03:52:20;1.30;99.90
7194;DHT22;3638;48.820;9.244;2023-03-03T03:54:47;1.30;99.90
7194;DHT22;3638;48.820;9.244;2023-03-03T03:57:14;1.40;99.90
7194;DHT22;3638;48.820;9.244;2023-03-03T03:59:41;1.30;99.90
7194;DHT22;3638;48.820;9.244;2023-03-03T04:02:08;1.30;99.90
7194;DHT22;3638;48.820;9.244;2023-03-03T04:04:35;1.40;99.90
7194;DHT22;3638;48.820;9.244;2023-03-03T04:07:01;1.50;99.90
7194;DHT22;3638;48.820;9.244;2023-03-03T04:09:30;1.50;99.90
7194;DHT22;3638;48.820;9.244;2023-03-03T04:11:56;1.60;99.90
7194;DHT22;3638;48.820;9.244;2023-03-03T04:14:23;1.60;99.90
7194;DHT22;3638;48.820;9.244;2023-03-03T04:16:50;1.60;99.90
7194;DHT22;3638;48.820;9.244;2023-03-03T04:19:17;1.60;99.90
7194;DHT22;3638;48.820;9.244;2023-03-03T04:21:44;1.70;99.90
7194;DHT22;3638;48.820;9.244;2023-03-03T04:24:11;1.80;99.90
7194;DHT22;3638;48.820;9.244;2023-03-03T04:26:39;1.80;99.90
7194;DHT22;3638;48.820;9.244;2023-03-03T04:29:06;1.80;99.90
7194;DHT22;3638;48.820;9.244;2023-03-03T04:31:33;1.90;99.90
7194;DHT22;3638;48.820;9.244;2023-03-03T04:34:00;2.00;99.90
7194;DHT22;3638;48.820;9.244;2023-03-03T04:36:27;2.10;99.90
7194;DHT22;3638;48.820;9.244;2023-03-03T04:38:54;2.00;99.90
7194;DHT22;3638;48.820;9.244;2023-03-03T04:41:21;2.20;99.90
7194;DHT22;3638;48.820;9.244;2023-03-03T04:43:49;2.30;99.90
7194;DHT22;3638;48.820;9.244;2023-03-03T04:46:16;2.30;99.90
7194;DHT22;3638;48.820;9.244;2023-03-03T04:48:43;2.30;99.90
7194;DHT22;3638;48.820;9.244;2023-03-03T04:51:10;2.30;99.90
7194;DHT22;3638;48.820;9.244;2023-03-03T04:53:37;2.30;99.90
7194;DHT22;3638;48.820;9.244;2023-03-03T04:56:04;2.20;99.90
7194;DHT22;3638;48.820;9.244;2023-03-03T04:58:31;2.20;99.90
7194;DHT22;3638;48.820;9.244;2023-03-03T05:00:59;2.30;99.90
7194;DHT22;3638;48.820;9.244;2023-03-03T05:03:27;2.30;99.90
7194;DHT22;3638;48.820;9.244;2023-03-03T05:05:53;2.40;99.90
7194;DHT22;3638;48.820;9.244;2023-03-03T05:08:21;2.50;99.90
7194;DHT22;3638;48.820;9.244;2023-03-03T05:10:51;2.50;99.90
7194;DHT22;3638;48.820;9.244;2023-03-03T05:13:18;2.40;99.90
7194;DHT22;3638;48.820;9.244;2023-03-03T05:15:48;2.40;99.90
7194;DHT22;3638;48.820;9.244;2023-03-03T05:18:18;2.40;99.90
7194;DHT22;3638;48.820;9.244;2023-03-03T05:20:45;2.40;99.90
7194;DHT22;3638;48.820;9.244;2023-03-03T05:23:12;2.50;99.90
7194;DHT22;3638;48.820;9.244;2023-03-03T05:25:39;2.40;99.90
7194;DHT22;3638;48.820;9.244;2023-03-03T05:28:07;2.40;99.90
7194;DHT22;3638;48.820;9.244;2023-03-03T05:30:34;2.40;99.90
7194;DHT22;3638;48.820;9.244;2023-03-03T05:33:02;2.40;99.90
7194;DHT22;3638;48.820;9.244;2023-03-03T05:35:31;2.40;99.90
7194;DHT22;3638;48.820;9.244;2023-03-03T05:37:58;2.50;99.90
7194;DHT22;3638;48.820;9.244;2023-03-03T05:40:26;2.50;99.90
7194;DHT22;3638;48.820;9.244;2023-03-03T05:42:53;2.50;99.90
7194;DHT22;3638;48.820;9.244;2023-03-03T05:45:20;2.50;99.90
7194;DHT22;3638;48.820;9.244;2023-03-03T05:47:49;2.50;99.90
7194;DHT22;3638;48.820;9.244;2023-03-03T05:50:17;2.50;99.90
7194;DHT22;3638;48.820;9.244;2023-03-03T05:52:48;2.50;99.90
7194;DHT22;3638;48.820;9.244;2023-03-03T05:55:15;2.60;99.90
7194;DHT22;3638;48.820;9.244;2023-03-03T05:57:42;2.60;99.90
7194;DHT22;3638;48.820;9.244;2023-03-03T06:00:10;2.70;99.90
7194;DHT22;3638;48.820;9.244;2023-03-03T06:02:37;2.70;99.90
7194;DHT22;3638;48.820;9.244;2023-03-03T06:05:05;2.60;99.90
7194;DHT22;3638;48.820;9.244;2023-03-03T06:07:33;2.50;99.90
7194;DHT22;3638;48.820;9.244;2023-03-03T06:10:03;2.60;99.90
7194;DHT22;3638;48.820;9.244;2023-03-03T06:12:30;2.50;99.90
7194;DHT22;3638;48.820;9.244;2023-03-03T06:14:57;2.60;99.90
7194;DHT22;3638;48.820;9.244;2023-03-03T06:17:24;2.50;99.90
7194;DHT22;3638;48.820;9.244;2023-03-03T06:19:51;2.60;99.90
7194;DHT22;3638;48.820;9.244;2023-03-03T06:22:18;2.60;99.90
7194;DHT22;3638;48.820;9.244;2023-03-03T06:24:45;2.70;99.90
7194;DHT22;3638;48.820;9.244;2023-03-03T06:27:13;2.70;99.90
7194;DHT22;3638;48.820;9.244;2023-03-03T06:29:40;2.70;99.90
7194;DHT22;3638;48.820;9.244;2023-03-03T06:32:07;2.70;99.90
7194;DHT22;3638;48.820;9.244;2023-03-03T06:34:34;2.70;99.90
7194;DHT22;3638;48.820;9.244;2023-03-03T06:37:00;2.60;99.90
7194;DHT22;3638;48.820;9.244;2023-03-03T06:39:27;2.60;99.90
7194;DHT22;3638;48.820;9.244;2023-03-03T06:41:54;2.60;99.90
7194;DHT22;3638;48.820;9.244;2023-03-03T06:44:22;2.60;99.90
7194;DHT22;3638;48.820;9.244;2023-03-03T06:46:49;2.70;99.90
7194;DHT22;3638;48.820;9.244;2023-03-03T06:49:17;2.70;99.90
7194;DHT22;3638;48.820;9.244;2023-03-03T06:51:44;2.80;99.90
7194;DHT22;3638;48.820;9.244;2023-03-03T06:54:13;2.70;99.90
7194;DHT22;3638;48.820;9.244;2023-03-03T06:56:41;2.50;99.90
7194;DHT22;3638;48.820;9.244;2023-03-03T06:59:12;2.50;99.90
7194;DHT22;3638;48.820;9.244;2023-03-03T07:01:42;2.60;99.90
7194;DHT22;3638;48.820;9.244;2023-03-03T07:04:15;2.70;99.90
7194;DHT22;3638;48.820;9.244;2023-03-03T07:06:51;2.90;99.90
7194;DHT22;3638;48.820;9.244;2023-03-03T07:09:22;2.90;99.90
7194;DHT22;3638;48.820;9.244;2023-03-03T07:11:50;3.00;99.90
7194;DHT22;3638;48.820;9.244;2023-03-03T07:14:19;3.00;99.90
7194;DHT22;3638;48.820;9.244;2023-03-03T07:16:51;2.80;99.90
7194;DHT22;3638;48.820;9.244;2023-03-03T07:19:22;2.80;99.90
7194;DHT22;3638;48.820;9.244;2023-03-03T07:21:54;2.70;99.90
7194;DHT22;3638;48.820;9.244;2023-03-03T07:24:26;2.80;99.90
7194;DHT22;3638;48.820;9.244;2023-03-03T07:26:58;2.80;99.90
7194;DHT22;3638;48.820;9.244;2023-03-03T07:29:28;2.90;99.90
7194;DHT22;3638;48.820;9.244;2023-03-03T07:31:57;3.00;99.90
7194;DHT22;3638;48.820;9.244;2023-03-03T07:34:29;3.00;99.90
7194;DHT22;3638;48.820;9.244;2023-03-03T07:37:03;3.00;99.90
7194;DHT22;3638;48.820;9.244;2023-03-03T07:39:38;3.00;99.90
7194;DHT22;3638;48.820;9.244;2023-03-03T07:42:23;3.10;99.90
7194;DHT22;3638;48.820;9.244;2023-03-03T07:44:54;3.20;99.90
7194;DHT22;3638;48.820;9.244;2023-03-03T07:47:24;3.50;99.90
7194;DHT22;3638;48.820;9.244;2023-03-03T07:49:53;3.60;99.90
7194;DHT22;3638;48.820;9.244;2023-03-03T07:52:27;3.50;99.90
7194;DHT22;3638;48.820;9.244;2023-03-03T07:54:59;3.60;99.90
7194;DHT22;3638;48.820;9.244;2023-03-03T07:57:29;3.80;99.90
7194;DHT22;3638;48.820;9.244;2023-03-03T08:03:13;4.00;99.90
7194;DHT22;3638;48.820;9.244;2023-03-03T08:05:43;4.30;99.90
7194;DHT22;3638;48.820;9.244;2023-03-03T08:08:27;4.60;99.90
7194;DHT22;3638;48.820;9.244;2023-03-03T08:10:56;4.70;99.90
7194;DHT22;3638;48.820;9.244;2023-03-03T08:13:27;4.80;99.90
7194;DHT22;3638;48.820;9.244;2023-03-03T08:15:59;5.90;99.90
7194;DHT22;3638;48.820;9.244;2023-03-03T08:18:33;4.40;99.90
7194;DHT22;3638;48.820;9.244;2023-03-03T08:21:02;4.20;99.90
7194;DHT22;3638;48.820;9.244;2023-03-03T08:23:31;4.20;99.90
7194;DHT22;3638;48.820;9.244;2023-03-03T08:25:58;4.50;99.90
7194;DHT22;3638;48.820;9.244;2023-03-03T08:28:25;5.00;99.90
7194;DHT22;3638;48.820;9.244;2023-03-03T08:30:52;5.40;99.90
7194;DHT22;3638;48.820;9.244;2023-03-03T08:33:19;5.60;99.90
7194;DHT22;3638;48.820;9.244;2023-03-03T08:35:47;5.50;99.90
7194;DHT22;3638;48.820;9.244;2023-03-03T08:38:18;5.60;99.90
7194;DHT22;3638;48.820;9.244;2023-03-03T08:40:46;5.40;99.90
7194;DHT22;3638;48.820;9.244;2023-03-03T08:43:15;5.40;99.90
7194;DHT22;3638;48.820;9.244;2023-03-03T08:45:47;5.70;99.90
7194;DHT22;3638;48.820;9.244;2023-03-03T08:48:14;5.70;99.90
7194;DHT22;3638;48.820;9.244;2023-03-03T08:50:43;5.60;99.90
7194;DHT22;3638;48.820;9.244;2023-03-03T08:53:12;5.90;99.90
7194;DHT22;3638;48.820;9.244;2023-03-03T08:55:39;6.10;99.90
7194;DHT22;3638;48.820;9.244;2023-03-03T08:58:07;6.20;99.90
7194;DHT22;3638;48.820;9.244;2023-03-03T09:00:34;6.30;99.90
7194;DHT22;3638;48.820;9.244;2023-03-03T09:03:01;6.30;99.90
7194;DHT22;3638;48.820;9.244;2023-03-03T09:05:28;5.90;99.90
7194;DHT22;3638;48.820;9.244;2023-03-03T09:07:56;5.80;99.90
7194;DHT22;3638;48.820;9.244;2023-03-03T09:10:26;5.90;99.90
7194;DHT22;3638;48.820;9.244;2023-03-03T09:12:57;5.70;99.90
7194;DHT22;3638;48.820;9.244;2023-03-03T09:15:28;5.50;99.90
7194;DHT22;3638;48.820;9.244;2023-03-03T09:17:58;5.50;99.90
7194;DHT22;3638;48.820;9.244;2023-03-03T09:20:36;5.40;99.90
7194;DHT22;3638;48.820;9.244;2023-03-03T09:23:24;5.40;99.90
7194;DHT22;3638;48.820;9.244;2023-03-03T09:25:58;5.60;99.90
7194;DHT22;3638;48.820;9.244;2023-03-03T09:28:41;5.90;99.90
7194;DHT22;3638;48.820;9.244;2023-03-03T09:31:24;5.90;99.90
7194;DHT22;3638;48.820;9.244;2023-03-03T09:33:52;5.80;99.90
7194;DHT22;3638;48.820;9.244;2023-03-03T09:36:24;5.80;99.90
7194;DHT22;3638;48.820;9.244;2023-03-03T09:38:52;6.00;99.90
7194;DHT22;3638;48.820;9.244;2023-03-03T09:51:21;7.50;99.90
7194;DHT22;3638;48.820;9.244;2023-03-03T09:54:05;7.20;99.90
7194;DHT22;3638;48.820;9.244;2023-03-03T09:56:43;7.20;99.90
7194;DHT22;3638;48.820;9.244;2023-03-03T09:59:23;6.90;99.90
7194;DHT22;3638;48.820;9.244;2023-03-03T10:02:10;7.10;99.90
7194;DHT22;3638;48.820;9.244;2023-03-03T10:08:08;7.30;99.90
7194;DHT22;3638;48.820;9.244;2023-03-03T10:10:52;9.50;99.90
7194;DHT22;3638;48.820;9.244;2023-03-03T10:13:35;7.70;99.90
7194;DHT22;3638;48.820;9.244;2023-03-03T10:19:19;8.00;99.90
7194;DHT22;3638;48.820;9.244;2023-03-03T10:22:01;7.70;99.90
7194;DHT22;3638;48.820;9.244;2023-03-03T10:24:43;7.60;99.90
7194;DHT22;3638;48.820;9.244;2023-03-03T10:27:30;7.40;99.90
7194;DHT22;3638;48.820;9.244;2023-03-03T10:30:12;7.30;99.90
7194;DHT22;3638;48.820;9.244;2023-03-03T10:32:50;7.10;99.90
7194;DHT22;3638;48.820;9.244;2023-03-03T10:35:28;6.90;99.90
7194;DHT22;3638;48.820;9.244;2023-03-03T10:38:13;7.00;99.90
7194;DHT22;3638;48.820;9.244;2023-03-03T10:43:29;7.00;99.90
7194;DHT22;3638;48.820;9.244;2023-03-03T10:46:17;7.90;99.90
7194;DHT22;3638;48.820;9.244;2023-03-03T10:49:14;7.90;99.90
7194;DHT22;3638;48.820;9.244;2023-03-03T10:52:02;8.10;99.90
7194;DHT22;3638;48.820;9.244;2023-03-03T10:54:52;8.10;99.90
7194;DHT22;3638;48.820;9.244;2023-03-03T10:57:35;7.80;99.90
7194;DHT22;3638;48.820;9.244;2023-03-03T11:00:15;7.70;99.90
7194;DHT22;3638;48.820;9.244;2023-03-03T11:03:00;7.70;99.90
7194;DHT22;3638;48.820;9.244;2023-03-03T11:05:56;7.90;99.90
7194;DHT22;3638;48.820;9.244;2023-03-03T11:08:29;7.90;99.90
7194;DHT22;3638;48.820;9.244;2023-03-03T11:11:09;7.80;99.90
7194;DHT22;3638;48.820;9.244;2023-03-03T11:13:48;7.80;99.90
7194;DHT22;3638;48.820;9.244;2023-03-03T11:19:45;7.80;99.90
7194;DHT22;3638;48.820;9.244;2023-03-03T11:22:32;7.70;99.90
7194;DHT22;3638;48.820;9.244;2023-03-03T11:25:15;7.70;99.90
7194;DHT22;3638;48.820;9.244;2023-03-03T11:27:59;7.70;99.90
7194;DHT22;3638;48.820;9.244;2023-03-03T11:30:44;8.30;99.90
7194;DHT22;3638;48.820;9.244;2023-03-03T11:33:19;8.00;99.90
7194;DHT22;3638;48.820;9.244;2023-03-03T11:35:52;7.80;99.90
7194;DHT22;3638;48.820;9.244;2023-03-03T11:38:44;8.00;99.90
7194;DHT22;3638;48.820;9.244;2023-03-03T11:41:22;8.30;99.90
7194;DHT22;3638;48.820;9.244;2023-03-03T11:43:59;8.50;99.90
7194;DHT22;3638;48.820;9.244;2023-03-03T11:46:33;8.30;99.90
7194;DHT22;3638;48.820;9.244;2023-03-03T11:49:04;8.90;99.90
7194;DHT22;3638;48.820;9.244;2023-03-03T11:51:43;9.10;99.90
7194;DHT22;3638;48.820;9.244;2023-03-03T11:54:20;8.90;99.90
7194;DHT22;3638;48.820;9.244;2023-03-03T11:56:52;8.80;99.90
7194;DHT22;3638;48.820;9.244;2023-03-03T11:59:38;8.80;99.90
7194;DHT22;3638;48.820;9.244;2023-03-03T12:02:25;8.80;99.90
7194;DHT22;3638;48.820;9.244;2023-03-03T12:05:06;8.50;99.90
7194;DHT22;3638;48.820;9.244;2023-03-03T12:07:41;8.60;99.90
7194;DHT22;3638;48.820;9.244;2023-03-03T12:10:20;8.80;99.90
7194;DHT22;3638;48.820;9.244;2023-03-03T12:12:57;8.80;99.90
7194;DHT22;3638;48.820;9.244;2023-03-03T12:15:35;8.90;99.90
7194;DHT22;3638;48.820;9.244;2023-03-03T12:18:22;9.00;99.90
7194;DHT22;3638;48.820;9.244;2023-03-03T12:21:06;9.10;99.90
7194;DHT22;3638;48.820;9.244;2023-03-03T12:23:54;9.20;99.90
7194;DHT22;3638;48.820;9.244;2023-03-03T12:26:45;9.10;99.90
7194;DHT22;3638;48.820;9.244;2023-03-03T12:29:24;9.10;99.90
7194;DHT22;3638;48.820;9.244;2023-03-03T12:32:01;9.00;99.90
7194;DHT22;3638;48.820;9.244;2023-03-03T12:34:36;9.00;99.90
7194;DHT22;3638;48.820;9.244;2023-03-03T12:37:15;8.80;99.90
7194;DHT22;3638;48.820;9.244;2023-03-03T12:39:56;8.70;99.90
7194;DHT22;3638;48.820;9.244;2023-03-03T12:42:41;8.70;99.90
7194;DHT22;3638;48.820;9.244;2023-03-03T12:45:31;8.70;99.90
7194;DHT22;3638;48.820;9.244;2023-03-03T12:48:08;8.80;99.90
7194;DHT22;3638;48.820;9.244;2023-03-03T12:50:44;8.80;99.90
7194;DHT22;3638;48.820;9.244;2023-03-03T12:53:29;9.10;99.90
7194;DHT22;3638;48.820;9.244;2023-03-03T12:56:31;9.30;99.90
7194;DHT22;3638;48.820;9.244;2023-03-03T12:59:09;9.30;99.90
7194;DHT22;3638;48.820;9.244;2023-03-03T13:01:48;9.40;99.90
7194;DHT22;3638;48.820;9.244;2023-03-03T13:04:31;9.40;99.90
7194;DHT22;3638;48.820;9.244;2023-03-03T13:07:04;9.20;99.90
7194;DHT22;3638;48.820;9.244;2023-03-03T13:09:48;9.10;99.90
7194;DHT22;3638;48.820;9.244;2023-03-03T13:12:31;9.00;99.90
7194;DHT22;3638;48.820;9.244;2023-03-03T13:15:11;9.00;99.90
7194;DHT22;3638;48.820;9.244;2023-03-03T13:17:49;8.90;99.90
7194;DHT22;3638;48.820;9.244;2023-03-03T13:20:29;8.90;99.90
7194;DHT22;3638;48.820;9.244;2023-03-03T13:23:06;9.00;99.90
7194;DHT22;3638;48.820;9.244;2023-03-03T13:25:46;9.00;99.90
7194;DHT22;3638;48.820;9.244;2023-03-03T13:28:21;9.00;99.90
7194;DHT22;3638;48.820;9.244;2023-03-03T13:31:02;9.10;99.90
7194;DHT22;3638;48.820;9.244;2023-03-03T13:33:34;9.00;99.90
7194;DHT22;3638;48.820;9.244;2023-03-03T13:36:04;9.00;99.90
7194;DHT22;3638;48.820;9.244;2023-03-03T13:38:37;8.90;99.90
7194;DHT22;3638;48.820;9.244;2023-03-03T13:41:13;9.10;99.90
7194;DHT22;3638;48.820;9.244;2023-03-03T13:43:45;9.10;99.90
7194;DHT22;3638;48.820;9.244;2023-03-03T13:46:23;9.00;99.90
7194;DHT22;3638;48.820;9.244;2023-03-03T13:49:13;9.00;99.90
7194;DHT22;3638;48.820;9.244;2023-03-03T13:51:52;9.00;99.90
7194;DHT22;3638;48.820;9.244;2023-03-03T13:54:40;9.00;99.90
7194;DHT22;3638;48.820;9.244;2023-03-03T13:57:23;8.90;99.90
7194;DHT22;3638;48.820;9.244;2023-03-03T14:00:10;9.00;99.90
7194;DHT22;3638;48.820;9.244;2023-03-03T14:03:17;9.10;99.90
7194;DHT22;3638;48.820;9.244;2023-03-03T14:06:13;9.20;99.90
7194;DHT22;3638;48.820;9.244;2023-03-03T14:09:04;9.20;99.90
7194;DHT22;3638;48.820;9.244;2023-03-03T14:11:41;9.20;99.90
7194;DHT22;3638;48.820;9.244;2023-03-03T14:14:27;9.30;99.90
7194;DHT22;3638;48.820;9.244;2023-03-03T14:17:03;9.50;99.90
7194;DHT22;3638;48.820;9.244;2023-03-03T14:19:39;9.60;99.90
7194;DHT22;3638;48.820;9.244;2023-03-03T14:22:16;9.40;99.90
7194;DHT22;3638;48.820;9.244;2023-03-03T14:25:01;9.30;99.70
7194;DHT22;3638;48.820;9.244;2023-03-03T14:27:35;9.30;99.90
7194;DHT22;3638;48.820;9.244;2023-03-03T14:30:27;9.40;99.90
7194;DHT22;3638;48.820;9.244;2023-03-03T14:33:07;9.40;99.90
7194;DHT22;3638;48.820;9.244;2023-03-03T14:35:49;9.40;99.80
7194;DHT22;3638;48.820;9.244;2023-03-03T14:38:19;9.40;99.30
7194;DHT22;3638;48.820;9.244;2023-03-03T14:41:02;9.40;99.70
7194;DHT22;3638;48.820;9.244;2023-03-03T14:43:34;9.40;99.80
7194;DHT22;3638;48.820;9.244;2023-03-03T14:46:28;9.40;99.50
7194;DHT22;3638;48.820;9.244;2023-03-03T14:48:59;9.40;99.80
7194;DHT22;3638;48.820;9.244;2023-03-03T14:51:32;9.50;99.60
7194;DHT22;3638;48.820;9.244;2023-03-03T14:54:10;9.50;99.50
7194;DHT22;3638;48.820;9.244;2023-03-03T14:56:56;9.50;99.30
7194;DHT22;3638;48.820;9.244;2023-03-03T14:59:26;9.50;99.60
7194;DHT22;3638;48.820;9.244;2023-03-03T15:02:02;9.80;99.20
7194;DHT22;3638;48.820;9.244;2023-03-03T15:04:49;9.70;99.60
7194;DHT22;3638;48.820;9.244;2023-03-03T15:07:29;9.60;99.60
7194;DHT22;3638;48.820;9.244;2023-03-03T15:09:58;9.70;99.80
7194;DHT22;3638;48.820;9.244;2023-03-03T15:12:33;9.80;99.60
7194;DHT22;3638;48.820;9.244;2023-03-03T15:15:06;9.70;99.40
7194;DHT22;3638;48.820;9.244;2023-03-03T15:17:53;9.70;99.10
7194;DHT22;3638;48.820;9.244;2023-03-03T15:20:30;9.70;98.90
7194;DHT22;3638;48.820;9.244;2023-03-03T15:23:15;9.60;99.20
7194;DHT22;3638;48.820;9.244;2023-03-03T15:25:56;9.60;99.10
7194;DHT22;3638;48.820;9.244;2023-03-03T15:28:35;7.10;98.40
7194;DHT22;3638;48.820;9.244;2023-03-03T15:31:17;9.60;99.60
7194;DHT22;3638;48.820;9.244;2023-03-03T15:33:56;9.60;99.60
7194;DHT22;3638;48.820;9.244;2023-03-03T15:36:34;9.60;99.40
7194;DHT22;3638;48.820;9.244;2023-03-03T15:39:15;9.60;99.30
7194;DHT22;3638;48.820;9.244;2023-03-03T15:41:55;9.50;99.20
7194;DHT22;3638;48.820;9.244;2023-03-03T15:44:30;9.50;99.40
7194;DHT22;3638;48.820;9.244;2023-03-03T15:47:18;9.50;99.20
7194;DHT22;3638;48.820;9.244;2023-03-03T15:53:22;9.60;99.10
7194;DHT22;3638;48.820;9.244;2023-03-03T15:56:17;9.60;99.50
7194;DHT22;3638;48.820;9.244;2023-03-03T15:59:19;9.60;99.20
7194;DHT22;3638;48.820;9.244;2023-03-03T16:02:07;9.50;99.20
7194;DHT22;3638;48.820;9.244;2023-03-03T16:04:50;9.50;99.40
7194;DHT22;3638;48.820;9.244;2023-03-03T16:07:30;9.50;99.10
7194;DHT22;3638;48.820;9.244;2023-03-03T16:10:18;9.50;99.60
7194;DHT22;3638;48.820;9.244;2023-03-03T16:12:54;9.40;99.60
7194;DHT22;3638;48.820;9.244;2023-03-03T16:15:44;9.40;99.50
7194;DHT22;3638;48.820;9.244;2023-03-03T16:18:22;9.30;99.70
7194;DHT22;3638;48.820;9.244;2023-03-03T16:21:06;9.30;99.90
7194;DHT22;3638;48.820;9.244;2023-03-03T16:23:46;9.20;99.90
7194;DHT22;3638;48.820;9.244;2023-03-03T16:26:36;9.10;99.80
7194;DHT22;3638;48.820;9.244;2023-03-03T16:29:24;9.20;99.90
7194;DHT22;3638;48.820;9.244;2023-03-03T16:32:01;9.10;99.90
7194;DHT22;3638;48.820;9.244;2023-03-03T16:34:37;9.00;99.90
7194;DHT22;3638;48.820;9.244;2023-03-03T16:37:14;9.00;99.90
7194;DHT22;3638;48.820;9.244;2023-03-03T16:39:52;8.90;99.90
7194;DHT22;3638;48.820;9.244;2023-03-03T16:42:25;8.90;99.90
7194;DHT22;3638;48.820;9.244;2023-03-03T16:45:08;8.80;99.90
7194;DHT22;3638;48.820;9.244;2023-03-03T16:48:12;8.70;99.90
7194;DHT22;3638;48.820;9.244;2023-03-03T16:50:53;8.60;99.90
7194;DHT22;3638;48.820;9.244;2023-03-03T16:53:47;8.50;99.90
7194;DHT22;3638;48.820;9.244;2023-03-03T16:56:20;8.30;99.90
7194;DHT22;3638;48.820;9.244;2023-03-03T16:59:02;8.30;99.90
7194;DHT22;3638;48.820;9.244;2023-03-03T17:01:50;8.20;99.90
7194;DHT22;3638;48.820;9.244;2023-03-03T17:04:35;8.20;99.90
7194;DHT22;3638;48.820;9.244;2023-03-03T17:07:14;8.00;99.90
7194;DHT22;3638;48.820;9.244;2023-03-03T17:09:57;8.00;99.90
7194;DHT22;3638;48.820;9.244;2023-03-03T17:12:40;7.90;99.90
7194;DHT22;3638;48.820;9.244;2023-03-03T17:15:23;7.80;99.90
7194;DHT22;3638;48.820;9.244;2023-03-03T17:18:10;7.70;99.90
7194;DHT22;3638;48.820;9.244;2023-03-03T17:20:46;7.70;99.90
7194;DHT22;3638;48.820;9.244;2023-03-03T17:23:33;7.60;99.90
7194;DHT22;3638;48.820;9.244;2023-03-03T17:26:21;7.40;99.90
7194;DHT22;3638;48.820;9.244;2023-03-03T17:29:02;7.40;99.90
7194;DHT22;3638;48.820;9.244;2023-03-03T17:31:41;7.30;99.90
7194;DHT22;3638;48.820;9.244;2023-03-03T17:34:20;7.10;99.90